Time;durP1;ratioP1;P1;durP2;ratioP2;P2;SDS_P1;SDS_P2;PMS_P1;PMS_P2;Temp;Humidity;BMP_temperature;BMP_pressure;BME280_temperature;BME280_humidity;BME280_pressure;Samples;Min_cycle;Max_cycle;Signal;HPM_P1;HPM_P2
2023/01/25 00:00:32;;;;;;;;;;;;;;;;;;5011556;28;20444;-66
2023/01/25 00:02:57;;;;;;;;;;;;;;;;;;5004342;28;20398;-67
2023/01/25 00:05:23;;;;;;;;;;;;;;;;;;5003741;28;19921;-67
2023/01/25 00:07:49;;;;;;;;;;;;;;;;;;4980731;28;19921;-67
2023/01/25 00:10:14;;;;;;;;;;;;;;;;;;5004345;28;19921;-67
2023/01/25 00:12:39;;;;;;;;;;;;;;;;;;5002095;28;19968;-67
2023/01/25 00:15:08;;;;;;;;;;;;;;;;;;5004023;28;20145;-66
2023/01/25 00:17:33;;;;;;;;;;;;;;;;;;5002819;28;19917;-66
2023/01/25 00:20:01;;;;;;;;;;;;;;;;;;4988128;28;19918;-67
2023/01/25 00:22:28;;;;;;;;;;;;;;;;;;5014736;28;19928;-67
2023/01/25 00:24:54;;;;;;;;;;;;;;;;;;5002460;28;19921;-67
2023/01/25 00:27:19;;;;;;;;;;;;;;;;;;5001636;28;19978;-67
2023/01/25 00:29:44;;;;;;;;;;;;;;;;;;4979533;28;19927;-67
2023/01/25 00:32:12;;;;;;;;;;;;;;;;;;5002855;28;20619;-67
2023/01/25 00:34:37;;;;;;;;;;;;;;;;;;5002164;28;19996;-66
2023/01/25 00:40:20;;;;;;;;;;;;;;;;;;5005599;28;20052;-66
2023/01/25 00:46:02;;;;;;;;;;;;;;;;;;4999007;28;19967;-66
2023/01/25 00:48:30;;;;;;;;;;;;;;;;;;5005423;28;19921;-66
2023/01/25 00:50:55;;;;;;;;;;;;;;;;;;5003284;28;20329;-66
2023/01/25 00:53:21;;;;;;;;;;;;;;;;;;5003358;28;20039;-67
2023/01/25 00:55:46;;;;;;;;;;;;;;;;;;4997985;28;20081;-65
2023/01/25 00:58:11;;;;;;;;;;;;;;;;;;5004774;28;20854;-66
2023/01/25 01:00:39;;;;;;;;;;;;;;;;;;5002613;28;19947;-65
2023/01/25 01:03:04;;;;;;;;;;;;;;;;;;5001574;28;19959;-67
2023/01/25 01:05:34;;;;;;;;;;;;;;;;;;4999999;28;20400;-67
2023/01/25 01:08:02;;;;;;;;;;;;;;;;;;5003708;28;19931;-68
2023/01/25 01:10:27;;;;;;;;;;;;;;;;;;5003483;28;19921;-67
2023/01/25 01:12:53;;;;;;;;;;;;;;;;;;5003969;28;20251;-68
2023/01/25 01:15:19;;;;;;;;;;;;;;;;;;4999753;28;20003;-67
2023/01/25 01:17:44;;;;;;;;;;;;;;;;;;5001578;28;20064;-67
2023/01/25 01:20:09;;;;;;;;;;;;;;;;;;5001915;28;19928;-68
2023/01/25 01:22:37;;;;;;;;;;;;;;;;;;4993650;28;20747;-68
2023/01/25 01:25:02;;;;;;;;;;;;;;;;;;5002511;28;19917;-68
2023/01/25 01:27:28;;;;;;;;;;;;;;;;;;5001614;28;20015;-67
2023/01/25 01:29:53;;;;;;;;;;;;;;;;;;4996661;28;19921;-67
2023/01/25 01:32:18;;;;;;;;;;;;;;;;;;5002250;28;20383;-67
2023/01/25 01:34:46;;;;;;;;;;;;;;;;;;4996185;28;19979;-67
2023/01/25 01:37:11;;;;;;;;;;;;;;;;;;5012790;28;20004;-67
2023/01/25 01:39:37;;;;;;;;;;;;;;;;;;5002067;28;19923;-67
2023/01/25 01:42:02;;;;;;;;;;;;;;;;;;5001864;28;19960;-66
2023/01/25 01:44:27;;;;;;;;;;;;;;;;;;4978831;28;19928;-67
2023/01/25 01:46:52;;;;;;;;;;;;;;;;;;5003095;28;20481;-68
2023/01/25 01:49:18;;;;;;;;;;;;;;;;;;4996027;28;19921;-67
2023/01/25 01:51:43;;;;;;;;;;;;;;;;;;5003092;28;19930;-67
2023/01/25 01:54:09;;;;;;;;;;;;;;;;;;5001361;28;20399;-68
2023/01/25 01:56:34;;;;;;;;;;;;;;;;;;5005807;28;21347;-67
2023/01/25 01:59:00;;;;;;;;;;;;;;;;;;5000901;28;19928;-68
2023/01/25 02:01:26;;;;;;;;;;;;;;;;;;4999688;28;20384;-67
2023/01/25 02:03:51;;;;;;;;;;;;;;;;;;5001755;28;19927;-67
2023/01/25 02:06:16;;;;;;;;;;;;;;;;;;5001113;28;19925;-67
2023/01/25 02:08:42;;;;;;;;;;;;;;;;;;5003462;28;20319;-68
2023/01/25 02:11:08;;;;;;;;;;;;;;;;;;4979966;28;19916;-67
2023/01/25 02:13:33;;;;;;;;;;;;;;;;;;5001216;28;19921;-67
2023/01/25 02:15:59;;;;;;;;;;;;;;;;;;5010780;28;19917;-68
2023/01/25 02:18:24;;;;;;;;;;;;;;;;;;5002244;28;19918;-66
2023/01/25 02:20:49;;;;;;;;;;;;;;;;;;5002513;28;19917;-66
2023/01/25 02:23:15;;;;;;;;;;;;;;;;;;5000049;28;19921;-66
2023/01/25 02:25:40;;;;;;;;;;;;;;;;;;4996519;28;19922;-66
2023/01/25 02:28:08;;;;;;;;;;;;;;;;;;5000631;28;19924;-66
2023/01/25 02:30:33;;;;;;;;;;;;;;;;;;4997725;28;19917;-65
2023/01/25 02:32:59;;;;;;;;;;;;;;;;;;5000647;28;19940;-66
2023/01/25 02:35:25;;;;;;;;;;;;;;;;;;5001638;28;19928;-66
2023/01/25 02:37:53;;;;;;;;;;;;;;;;;;5011470;28;19917;-66
2023/01/25 02:40:20;;;;;;;;;;;;;;;;;;5001422;28;19924;-66
2023/01/25 02:42:45;;;;;;;;;;;;;;;;;;4995429;28;19925;-66
2023/01/25 02:45:11;;;;;;;;;;;;;;;;;;5001789;28;19975;-68
2023/01/25 02:47:36;;;;;;;;;;;;;;;;;;5000375;28;21274;-66
2023/01/25 02:50:01;;;;;;;;;;;;;;;;;;5002015;28;19928;-66
2023/01/25 02:52:29;;;;;;;;;;;;;;;;;;5011368;28;20288;-66
2023/01/25 02:54:55;;;;;;;;;;;;;;;;;;5001894;28;19950;-66
2023/01/25 03:00:37;;;;;;;;;;;;;;;;;;5001093;28;19943;-66
2023/01/25 03:03:03;;;;;;;;;;;;;;;;;;5000343;28;19917;-66
2023/01/25 03:05:29;;;;;;;;;;;;;;;;;;5001114;28;19929;-66
2023/01/25 03:07:54;;;;;;;;;;;;;;;;;;4985763;28;20162;-66
2023/01/25 03:10:25;;;;;;;;;;;;;;;;;;4995639;28;19917;-66
2023/01/25 03:12:50;;;;;;;;;;;;;;;;;;4999881;28;19925;-66
2023/01/25 03:15:16;;;;;;;;;;;;;;;;;;4995131;28;20632;-66
2023/01/25 03:17:42;;;;;;;;;;;;;;;;;;5001098;28;20156;-66
2023/01/25 03:20:07;;;;;;;;;;;;;;;;;;5003859;28;19978;-66
2023/01/25 03:22:33;;;;;;;;;;;;;;;;;;5011756;28;19921;-66
2023/01/25 03:24:58;;;;;;;;;;;;;;;;;;4998995;28;19928;-66
2023/01/25 03:27:23;;;;;;;;;;;;;;;;;;5001767;28;20400;-66
2023/01/25 03:29:53;;;;;;;;;;;;;;;;;;5001340;28;19952;-66
2023/01/25 03:32:18;;;;;;;;;;;;;;;;;;4985171;28;20024;-67
2023/01/25 03:34:46;;;;;;;;;;;;;;;;;;5000850;28;19928;-67
2023/01/25 03:37:11;;;;;;;;;;;;;;;;;;5004695;28;20764;-66
2023/01/25 03:39:37;;;;;;;;;;;;;;;;;;5015254;28;20329;-66
2023/01/25 03:42:02;;;;;;;;;;;;;;;;;;5005410;28;19929;-66
2023/01/25 03:44:30;;;;;;;;;;;;;;;;;;5001788;28;19925;-67
2023/01/25 03:46:55;;;;;;;;;;;;;;;;;;5002473;28;20627;-66
2023/01/25 03:49:21;;;;;;;;;;;;;;;;;;4981828;28;20069;-65
2023/01/25 03:51:46;;;;;;;;;;;;;;;;;;4980134;28;19979;-66
2023/01/25 03:54:12;;;;;;;;;;;;;;;;;;5007429;28;19921;-65
2023/01/25 03:56:37;;;;;;;;;;;;;;;;;;5002144;28;20571;-66
2023/01/25 03:59:02;;;;;;;;;;;;;;;;;;5005072;28;20350;-65
2023/01/25 04:01:28;;;;;;;;;;;;;;;;;;4980616;28;19921;-65
2023/01/25 04:03:55;;;;;;;;;;;;;;;;;;5002682;28;19921;-67
2023/01/25 04:06:21;;;;;;;;;;;;;;;;;;5004082;28;20399;-67
2023/01/25 04:08:46;;;;;;;;;;;;;;;;;;4998213;28;20054;-67
2023/01/25 04:11:14;;;;;;;;;;;;;;;;;;5013914;28;20341;-66
2023/01/25 04:13:43;;;;;;;;;;;;;;;;;;5002077;28;19929;-67
2023/01/25 04:16:15;;;;;;;;;;;;;;;;;;5004033;28;19928;-67
2023/01/25 04:18:40;;;;;;;;;;;;;;;;;;4988479;28;20225;-66
2023/01/25 04:21:05;;;;;;;;;;;;;;;;;;5002946;28;19922;-66
2023/01/25 04:23:32;;;;;;;;;;;;;;;;;;5004926;28;19921;-66
2023/01/25 04:25:59;;;;;;;;;;;;;;;;;;5003962;28;19971;-66
2023/01/25 04:28:27;;;;;;;;;;;;;;;;;;5004875;28;19925;-66
2023/01/25 04:30:52;;;;;;;;;;;;;;;;;;4994874;28;19921;-65
2023/01/25 04:33:18;;;;;;;;;;;;;;;;;;5004330;28;20058;-66
2023/01/25 04:35:47;;;;;;;;;;;;;;;;;;5003937;28;19928;-65
2023/01/25 04:38:13;;;;;;;;;;;;;;;;;;5005177;28;19967;-66
2023/01/25 04:40:38;;;;;;;;;;;;;;;;;;5002573;28;20344;-67
2023/01/25 04:43:05;;;;;;;;;;;;;;;;;;5004530;28;20002;-65
2023/01/25 04:45:30;;;;;;;;;;;;;;;;;;5000663;28;19925;-66
2023/01/25 04:47:55;;;;;;;;;;;;;;;;;;5003174;28;20110;-67
2023/01/25 04:50:21;;;;;;;;;;;;;;;;;;5001059;28;19914;-67
2023/01/25 04:52:47;;;;;;;;;;;;;;;;;;5005301;28;20510;-65
2023/01/25 04:55:14;;;;;;;;;;;;;;;;;;5014124;28;19928;-66
2023/01/25 04:57:42;;;;;;;;;;;;;;;;;;5012695;28;19921;-67
2023/01/25 05:00:07;;;;;;;;;;;;;;;;;;5004511;28;20003;-68
2023/01/25 05:02:36;;;;;;;;;;;;;;;;;;5003337;28;19948;-67
2023/01/25 05:05:01;;;;;;;;;;;;;;;;;;5003468;28;20012;-70
2023/01/25 05:07:29;;;;;;;;;;;;;;;;;;5003526;28;19982;-67
2023/01/25 05:09:57;;;;;;;;;;;;;;;;;;5004917;28;20115;-68
2023/01/25 05:12:25;;;;;;;;;;;;;;;;;;5002739;28;20382;-67
2023/01/25 05:14:50;;;;;;;;;;;;;;;;;;4996257;28;20071;-66
2023/01/25 05:17:18;;;;;;;;;;;;;;;;;;5011267;28;19918;-67
2023/01/25 05:19:43;;;;;;;;;;;;;;;;;;4988030;28;19925;-67
2023/01/25 05:22:10;;;;;;;;;;;;;;;;;;5002373;28;19921;-67
2023/01/25 05:24:40;;;;;;;;;;;;;;;;;;4980864;28;20012;-67
2023/01/25 05:27:13;;;;;;;;;;;;;;;;;;4995867;28;19917;-66
2023/01/25 05:29:39;;;;;;;;;;;;;;;;;;5003621;28;19917;-66
2023/01/25 05:32:06;;;;;;;;;;;;;;;;;;4977982;28;19965;-65
2023/01/25 05:34:31;;;;;;;;;;;;;;;;;;5004500;28;19917;-64
2023/01/25 05:36:59;;;;;;;;;;;;;;;;;;5001613;28;20287;-65
2023/01/25 05:39:25;;;;;;;;;;;;;;;;;;5001409;28;20024;-66
2023/01/25 05:41:53;;;;;;;;;;;;;;;;;;5000681;28;20356;-65
2023/01/25 05:44:18;;;;;;;;;;;;;;;;;;4981230;28;19917;-66
2023/01/25 05:46:43;;;;;;;;;;;;;;;;;;4996072;28;20042;-67
2023/01/25 05:49:09;;;;;;;;;;;;;;;;;;4996043;28;19921;-65
2023/01/25 05:51:37;;;;;;;;;;;;;;;;;;5000748;28;20335;-65
2023/01/25 05:54:02;;;;;;;;;;;;;;;;;;5002444;28;19921;-65
2023/01/25 05:56:28;;;;;;;;;;;;;;;;;;4994301;28;19921;-64
2023/01/25 05:58:54;;;;;;;;;;;;;;;;;;4994140;28;20459;-64
2023/01/25 06:01:19;;;;;;;;;;;;;;;;;;5001650;28;20489;-65
2023/01/25 06:03:45;;;;;;;;;;;;;;;;;;4999682;28;19980;-66
2023/01/25 06:06:10;;;;;;;;;;;;;;;;;;4995350;28;20496;-65
2023/01/25 06:08:36;;;;;;;;;;;;;;;;;;4996010;28;19921;-65
2023/01/25 06:11:04;;;;;;;;;;;;;;;;;;5000427;28;19917;-64
2023/01/25 06:13:29;;;;;;;;;;;;;;;;;;4996527;28;20188;-64
2023/01/25 06:15:55;;;;;;;;;;;;;;;;;;4997799;28;20023;-65
2023/01/25 06:18:21;;;;;;;;;;;;;;;;;;5001042;28;19940;-65
2023/01/25 06:20:49;;;;;;;;;;;;;;;;;;5002797;28;19986;-65
2023/01/25 06:23:16;;;;;;;;;;;;;;;;;;5011628;28;19921;-65
2023/01/25 06:25:44;;;;;;;;;;;;;;;;;;4996113;28;20059;-65
2023/01/25 06:28:10;;;;;;;;;;;;;;;;;;5000616;28;20000;-65
2023/01/25 06:30:40;;;;;;;;;;;;;;;;;;5003166;28;19927;-65
2023/01/25 06:33:05;;;;;;;;;;;;;;;;;;5002709;28;20879;-65
2023/01/25 06:35:31;;;;;;;;;;;;;;;;;;5002780;28;19917;-65
2023/01/25 06:37:59;;;;;;;;;;;;;;;;;;5002389;28;20054;-65
2023/01/25 06:40:27;;;;;;;;;;;;;;;;;;4994735;28;19932;-65
2023/01/25 06:42:52;;;;;;;;;;;;;;;;;;5001279;28;20078;-65
2023/01/25 06:45:20;;;;;;;;;;;;;;;;;;4999371;28;20020;-65
2023/01/25 06:47:45;;;;;;;;;;;;;;;;;;4994763;28;19921;-65
2023/01/25 06:50:13;;;;;;;;;;;;;;;;;;5001766;28;20498;-65
2023/01/25 06:52:44;;;;;;;;;;;;;;;;;;5000575;28;20319;-65
2023/01/25 06:55:12;;;;;;;;;;;;;;;;;;5003091;28;20456;-65
2023/01/25 06:57:40;;;;;;;;;;;;;;;;;;4985809;28;19928;-65
2023/01/25 07:00:08;;;;;;;;;;;;;;;;;;5003228;28;21517;-63
2023/01/25 07:02:36;;;;;;;;;;;;;;;;;;5000357;28;20024;-66
2023/01/25 07:05:04;;;;;;;;;;;;;;;;;;5002074;28;19921;-65
2023/01/25 07:07:29;;;;;;;;;;;;;;;;;;5000793;28;20463;-65
2023/01/25 07:09:54;;;;;;;;;;;;;;;;;;5001926;28;19921;-65
2023/01/25 07:12:24;;;;;;;;;;;;;;;;;;4982163;28;19932;-66
2023/01/25 07:14:50;;;;;;;;;;;;;;;;;;4997745;28;20388;-65
2023/01/25 07:17:16;;;;;;;;;;;;;;;;;;5003081;28;19921;-65
2023/01/25 07:19:44;;;;;;;;;;;;;;;;;;4998654;28;19917;-65
2023/01/25 07:22:09;;;;;;;;;;;;;;;;;;5002091;28;20016;-67
2023/01/25 07:24:35;;;;;;;;;;;;;;;;;;5006590;28;19926;-66
2023/01/25 07:27:00;;;;;;;;;;;;;;;;;;5003900;28;19921;-65
2023/01/25 07:29:31;;;;;;;;;;;;;;;;;;5005693;28;19921;-65
2023/01/25 07:31:58;;;;;;;;;;;;;;;;;;5014619;28;19948;-66
2023/01/25 07:34:24;;;;;;;;;;;;;;;;;;5003406;28;19917;-66
2023/01/25 07:36:52;;;;;;;;;;;;;;;;;;5006456;28;19921;-65
2023/01/25 07:39:18;;;;;;;;;;;;;;;;;;5004402;28;19921;-66
2023/01/25 07:41:44;;;;;;;;;;;;;;;;;;5004459;28;19991;-65
2023/01/25 07:44:10;;;;;;;;;;;;;;;;;;5003803;28;19928;-66
2023/01/25 07:46:38;;;;;;;;;;;;;;;;;;4995678;28;19921;-65
2023/01/25 07:49:03;;;;;;;;;;;;;;;;;;5002746;28;19937;-65
2023/01/25 07:51:29;;;;;;;;;;;;;;;;;;4981698;28;19921;-66
2023/01/25 07:53:57;;;;;;;;;;;;;;;;;;5003945;28;19918;-66
2023/01/25 07:56:23;;;;;;;;;;;;;;;;;;4999934;28;19962;-65
2023/01/25 07:58:48;;;;;;;;;;;;;;;;;;5012866;28;19921;-65
2023/01/25 08:01:13;;;;;;;;;;;;;;;;;;5015059;28;19921;-65
2023/01/25 08:03:42;;;;;;;;;;;;;;;;;;5005267;28;19917;-65
2023/01/25 08:06:09;;;;;;;;;;;;;;;;;;5002033;28;20081;-65
2023/01/25 08:08:34;;;;;;;;;;;;;;;;;;5004032;28;19922;-65
2023/01/25 08:10:59;;;;;;;;;;;;;;;;;;5005133;28;19979;-65
2023/01/25 08:13:25;;;;;;;;;;;;;;;;;;5004862;28;19921;-65
2023/01/25 08:15:53;;;;;;;;;;;;;;;;;;4994850;28;19928;-64
2023/01/25 08:18:20;;;;;;;;;;;;;;;;;;5003989;28;21463;-66
2023/01/25 08:20:47;;;;;;;;;;;;;;;;;;5004351;28;20333;-65
2023/01/25 08:23:19;;;;;;;;;;;;;;;;;;4996170;28;20502;-64
2023/01/25 08:25:49;;;;;;;;;;;;;;;;;;5003446;28;19949;-65
2023/01/25 08:28:14;;;;;;;;;;;;;;;;;;4996045;28;19998;-65
2023/01/25 08:30:42;;;;;;;;;;;;;;;;;;4995481;28;20197;-65
2023/01/25 08:33:10;;;;;;;;;;;;;;;;;;5003549;28;20115;-65
2023/01/25 08:35:38;;;;;;;;;;;;;;;;;;4997854;28;20158;-65
2023/01/25 08:38:04;;;;;;;;;;;;;;;;;;5005896;28;20016;-64
2023/01/25 08:40:31;;;;;;;;;;;;;;;;;;5001019;28;19976;-65
2023/01/25 08:42:59;;;;;;;;;;;;;;;;;;5004027;28;20279;-66
2023/01/25 08:45:25;;;;;;;;;;;;;;;;;;4994689;28;20511;-67
2023/01/25 08:47:50;;;;;;;;;;;;;;;;;;4995527;28;19917;-66
2023/01/25 08:50:15;;;;;;;;;;;;;;;;;;5002161;28;19964;-64
2023/01/25 08:52:41;;;;;;;;;;;;;;;;;;5003496;28;21007;-65
2023/01/25 08:55:06;;;;;;;;;;;;;;;;;;5003059;28;20059;-66
2023/01/25 08:57:34;;;;;;;;;;;;;;;;;;5003195;28;19918;-64
2023/01/25 09:00:00;;;;;;;;;;;;;;;;;;5000332;28;19929;-65
2023/01/25 09:02:25;;;;;;;;;;;;;;;;;;5014577;28;19920;-65
2023/01/25 09:04:53;;;;;;;;;;;;;;;;;;5000513;28;19922;-65
2023/01/25 09:07:20;;;;;;;;;;;;;;;;;;5003818;28;19929;-65
2023/01/25 09:09:46;;;;;;;;;;;;;;;;;;5002210;28;19921;-65
2023/01/25 09:12:12;;;;;;;;;;;;;;;;;;4996093;28;20499;-65
2023/01/25 09:14:39;;;;;;;;;;;;;;;;;;5000947;28;20531;-65
2023/01/25 09:17:06;;;;;;;;;;;;;;;;;;4994809;28;20201;-65
2023/01/25 09:19:32;;;;;;;;;;;;;;;;;;5002040;28;20127;-65
2023/01/25 09:21:57;;;;;;;;;;;;;;;;;;4978067;28;20068;-65
2023/01/25 09:24:22;;;;;;;;;;;;;;;;;;4988237;28;20003;-66
2023/01/25 09:26:48;;;;;;;;;;;;;;;;;;4995293;28;20182;-64
2023/01/25 09:29:13;;;;;;;;;;;;;;;;;;5004880;28;20743;-64
2023/01/25 09:31:39;;;;;;;;;;;;;;;;;;4977895;28;19924;-64
2023/01/25 09:34:07;;;;;;;;;;;;;;;;;;4980055;28;19918;-64
2023/01/25 09:36:37;;;;;;;;;;;;;;;;;;4981475;28;20261;-64
2023/01/25 09:39:03;;;;;;;;;;;;;;;;;;5005342;28;19965;-64
2023/01/25 09:44:44;;;;;;;;;;;;;;;;;;5002646;28;20257;-65
2023/01/25 09:47:14;;;;;;;;;;;;;;;;;;4998575;28;19998;-65
2023/01/25 09:49:40;;;;;;;;;;;;;;;;;;4978568;28;20019;-65
2023/01/25 09:52:05;;;;;;;;;;;;;;;;;;4999682;28;19929;-64
2023/01/25 09:54:33;;;;;;;;;;;;;;;;;;5001501;28;19928;-65
2023/01/25 09:57:02;;;;;;;;;;;;;;;;;;5000272;28;20341;-65
2023/01/25 09:59:29;;;;;;;;;;;;;;;;;;4985674;28;19921;-64
2023/01/25 10:01:57;;;;;;;;;;;;;;;;;;4981801;28;19920;-64
2023/01/25 10:04:22;;;;;;;;;;;;;;;;;;5011976;28;19917;-64
2023/01/25 10:06:48;;;;;;;;;;;;;;;;;;5003001;28;19921;-64
2023/01/25 10:09:16;;;;;;;;;;;;;;;;;;4994891;28;19921;-65
2023/01/25 10:11:44;;;;;;;;;;;;;;;;;;5001720;28;19928;-65
2023/01/25 10:14:09;;;;;;;;;;;;;;;;;;5001338;28;20514;-64
2023/01/25 10:16:37;;;;;;;;;;;;;;;;;;5009851;28;19921;-64
2023/01/25 10:19:07;;;;;;;;;;;;;;;;;;4994561;28;19928;-64
2023/01/25 10:21:33;;;;;;;;;;;;;;;;;;4999673;28;20012;-64
2023/01/25 10:24:01;;;;;;;;;;;;;;;;;;5002191;28;20292;-65
2023/01/25 10:26:29;;;;;;;;;;;;;;;;;;5013955;28;20505;-62
2023/01/25 10:28:58;;;;;;;;;;;;;;;;;;5000028;28;19976;-63
2023/01/25 10:31:24;;;;;;;;;;;;;;;;;;4978138;28;19965;-63
2023/01/25 10:33:54;;;;;;;;;;;;;;;;;;5000279;28;20380;-64
2023/01/25 10:36:20;;;;;;;;;;;;;;;;;;5001808;28;19921;-64
2023/01/25 10:38:48;;;;;;;;;;;;;;;;;;4985491;28;19971;-64
2023/01/25 10:41:13;;;;;;;;;;;;;;;;;;5002452;28;20060;-64
2023/01/25 10:43:39;;;;;;;;;;;;;;;;;;5000530;28;19990;-64
2023/01/25 10:46:05;;;;;;;;;;;;;;;;;;4992157;28;19967;-65
2023/01/25 10:48:33;;;;;;;;;;;;;;;;;;4986285;28;20399;-65
2023/01/25 10:51:03;;;;;;;;;;;;;;;;;;5000565;28;20390;-65
2023/01/25 10:53:28;;;;;;;;;;;;;;;;;;4980416;28;20481;-65
2023/01/25 10:55:56;;;;;;;;;;;;;;;;;;5001500;28;20034;-64
2023/01/25 10:58:24;;;;;;;;;;;;;;;;;;4999389;28;19921;-64
2023/01/25 11:00:49;;;;;;;;;;;;;;;;;;5002300;28;19990;-65
2023/01/25 11:03:15;;;;;;;;;;;;;;;;;;5000722;28;19917;-65
2023/01/25 11:05:42;;;;;;;;;;;;;;;;;;4995598;28;19917;-65
2023/01/25 11:08:07;;;;;;;;;;;;;;;;;;4995637;28;19976;-65
2023/01/25 11:10:32;;;;;;;;;;;;;;;;;;5000745;28;20031;-64
2023/01/25 11:12:58;;;;;;;;;;;;;;;;;;4998819;28;20028;-64
2023/01/25 11:15:24;;;;;;;;;;;;;;;;;;4998624;28;20047;-65
2023/01/25 11:17:49;;;;;;;;;;;;;;;;;;4998118;28;19918;-65
2023/01/25 11:20:22;;;;;;;;;;;;;;;;;;5000547;28;19933;-65
2023/01/25 11:22:47;;;;;;;;;;;;;;;;;;5002124;28;20123;-65
2023/01/25 11:25:12;;;;;;;;;;;;;;;;;;4978651;28;19927;-65
2023/01/25 11:27:42;;;;;;;;;;;;;;;;;;5009325;28;19944;-65
2023/01/25 11:30:10;;;;;;;;;;;;;;;;;;4999070;28;19977;-66
2023/01/25 11:32:35;;;;;;;;;;;;;;;;;;5002132;28;19970;-66
2023/01/25 11:35:03;;;;;;;;;;;;;;;;;;4977031;28;20372;-66
2023/01/25 11:37:28;;;;;;;;;;;;;;;;;;5013058;28;19924;-65
2023/01/25 11:39:56;;;;;;;;;;;;;;;;;;4999382;28;19978;-65
2023/01/25 11:42:21;;;;;;;;;;;;;;;;;;5001052;28;19946;-66
2023/01/25 11:44:50;;;;;;;;;;;;;;;;;;5000419;28;20384;-65
2023/01/25 11:47:18;;;;;;;;;;;;;;;;;;4998561;28;20436;-65
2023/01/25 11:49:43;;;;;;;;;;;;;;;;;;5010599;28;19921;-65
2023/01/25 11:52:09;;;;;;;;;;;;;;;;;;4996951;28;20030;-65
2023/01/25 11:54:34;;;;;;;;;;;;;;;;;;4999820;28;19921;-65
2023/01/25 11:56:59;;;;;;;;;;;;;;;;;;4979390;28;19981;-65
2023/01/25 11:59:26;;;;;;;;;;;;;;;;;;5005367;28;20051;-65
2023/01/25 12:01:51;;;;;;;;;;;;;;;;;;5003562;28;19924;-65
2023/01/25 12:04:17;;;;;;;;;;;;;;;;;;5005083;28;20621;-65
2023/01/25 12:06:42;;;;;;;;;;;;;;;;;;5003609;28;20394;-65
2023/01/25 12:09:07;;;;;;;;;;;;;;;;;;4996809;28;20016;-65
2023/01/25 12:11:33;;;;;;;;;;;;;;;;;;5002472;28;19917;-65
2023/01/25 12:13:59;;;;;;;;;;;;;;;;;;5003505;28;19920;-66
2023/01/25 12:16:26;;;;;;;;;;;;;;;;;;5000124;28;19975;-65
2023/01/25 12:18:52;;;;;;;;;;;;;;;;;;5005290;28;19921;-66
2023/01/25 12:21:18;;;;;;;;;;;;;;;;;;5013943;28;19970;-66
2023/01/25 12:23:43;;;;;;;;;;;;;;;;;;5005839;28;19920;-66
2023/01/25 12:26:11;;;;;;;;;;;;;;;;;;5002800;28;20212;-67
2023/01/25 12:28:36;;;;;;;;;;;;;;;;;;4996989;28;20463;-66
2023/01/25 12:31:02;;;;;;;;;;;;;;;;;;5002044;28;20423;-65
2023/01/25 12:33:28;;;;;;;;;;;;;;;;;;4996874;28;20408;-68
2023/01/25 12:35:53;;;;;;;;;;;;;;;;;;4979081;28;19951;-65
2023/01/25 12:38:19;;;;;;;;;;;;;;;;;;5002905;28;19943;-66
2023/01/25 12:40:45;;;;;;;;;;;;;;;;;;5004385;28;20004;-66
2023/01/25 12:43:11;;;;;;;;;;;;;;;;;;5004336;28;20443;-65
2023/01/25 12:45:36;;;;;;;;;;;;;;;;;;4980252;28;20403;-67
2023/01/25 12:48:02;;;;;;;;;;;;;;;;;;5001427;28;19928;-65
2023/01/25 12:50:27;;;;;;;;;;;;;;;;;;5004036;28;20385;-66
2023/01/25 12:52:53;;;;;;;;;;;;;;;;;;5002625;28;19940;-67
2023/01/25 12:55:21;;;;;;;;;;;;;;;;;;4996504;28;19921;-66
2023/01/25 12:57:49;;;;;;;;;;;;;;;;;;5004631;28;19963;-66
2023/01/25 13:00:17;;;;;;;;;;;;;;;;;;5001557;28;20482;-67
2023/01/25 13:02:43;;;;;;;;;;;;;;;;;;5002712;28;20423;-67
2023/01/25 13:05:09;;;;;;;;;;;;;;;;;;5003810;28;20138;-66
2023/01/25 13:07:35;;;;;;;;;;;;;;;;;;5002044;28;20335;-67
2023/01/25 13:10:00;;;;;;;;;;;;;;;;;;5002596;28;19967;-65
2023/01/25 13:12:26;;;;;;;;;;;;;;;;;;5001036;28;19957;-65
2023/01/25 13:14:52;;;;;;;;;;;;;;;;;;5013084;28;19985;-66
2023/01/25 13:17:18;;;;;;;;;;;;;;;;;;4995334;28;19999;-66
2023/01/25 13:19:43;;;;;;;;;;;;;;;;;;5000233;28;19924;-66
2023/01/25 13:22:09;;;;;;;;;;;;;;;;;;5004822;28;21461;-67
2023/01/25 13:24:34;;;;;;;;;;;;;;;;;;5002812;28;20023;-66
2023/01/25 13:27:05;;;;;;;;;;;;;;;;;;5000340;28;20031;-66
2023/01/25 13:29:31;;;;;;;;;;;;;;;;;;4996959;28;21525;-67
2023/01/25 13:31:56;;;;;;;;;;;;;;;;;;5001004;28;19932;-66
2023/01/25 13:34:22;;;;;;;;;;;;;;;;;;4988793;28;20383;-67
2023/01/25 13:36:47;;;;;;;;;;;;;;;;;;4978520;28;19921;-67
2023/01/25 13:39:16;;;;;;;;;;;;;;;;;;5002563;28;19936;-66
2023/01/25 13:41:41;;;;;;;;;;;;;;;;;;5003513;28;19924;-66
2023/01/25 13:44:07;;;;;;;;;;;;;;;;;;5002266;28;19927;-67
2023/01/25 13:46:35;;;;;;;;;;;;;;;;;;5000693;28;20355;-67
2023/01/25 13:49:00;;;;;;;;;;;;;;;;;;5000622;28;19917;-67
2023/01/25 13:51:26;;;;;;;;;;;;;;;;;;5000677;28;20296;-66
2023/01/25 13:53:51;;;;;;;;;;;;;;;;;;4996501;28;19978;-67
2023/01/25 13:56:17;;;;;;;;;;;;;;;;;;5000120;28;20016;-67
2023/01/25 13:58:42;;;;;;;;;;;;;;;;;;4978886;28;20149;-67
2023/01/25 14:01:08;;;;;;;;;;;;;;;;;;4994959;28;20336;-67
2023/01/25 14:03:36;;;;;;;;;;;;;;;;;;5001248;28;20028;-66
2023/01/25 14:06:03;;;;;;;;;;;;;;;;;;5001585;28;19996;-67
2023/01/25 14:08:28;;;;;;;;;;;;;;;;;;5000720;28;19917;-67
2023/01/25 14:10:53;;;;;;;;;;;;;;;;;;5000973;28;19928;-66
2023/01/25 14:13:19;;;;;;;;;;;;;;;;;;4975710;28;20008;-67
2023/01/25 14:15:44;;;;;;;;;;;;;;;;;;5011611;28;19940;-66
2023/01/25 14:18:13;;;;;;;;;;;;;;;;;;4997896;28;19921;-66
2023/01/25 14:20:38;;;;;;;;;;;;;;;;;;4999668;28;20567;-68
2023/01/25 14:23:04;;;;;;;;;;;;;;;;;;5002755;28;19945;-67
2023/01/25 14:25:32;;;;;;;;;;;;;;;;;;5001822;28;19924;-68
2023/01/25 14:28:00;;;;;;;;;;;;;;;;;;4999874;28;20444;-68
2023/01/25 14:30:25;;;;;;;;;;;;;;;;;;4998895;28;20048;-67
2023/01/25 14:32:51;;;;;;;;;;;;;;;;;;5004214;28;19933;-67
2023/01/25 14:35:16;;;;;;;;;;;;;;;;;;4996633;28;20151;-68
2023/01/25 14:37:42;;;;;;;;;;;;;;;;;;5013991;28;20692;-68
2023/01/25 14:40:07;;;;;;;;;;;;;;;;;;5002110;28;19927;-67
2023/01/25 14:42:33;;;;;;;;;;;;;;;;;;4994429;28;19925;-67
2023/01/25 14:44:58;;;;;;;;;;;;;;;;;;4977157;28;19920;-67
2023/01/25 14:47:24;;;;;;;;;;;;;;;;;;4999359;28;19921;-68
2023/01/25 14:49:50;;;;;;;;;;;;;;;;;;4999846;28;19991;-68
2023/01/25 14:52:15;;;;;;;;;;;;;;;;;;4994942;28;19933;-67
2023/01/25 14:54:43;;;;;;;;;;;;;;;;;;5000290;28;19917;-69
2023/01/25 14:57:11;;;;;;;;;;;;;;;;;;5002921;28;20023;-68
2023/01/25 15:02:54;;;;;;;;;;;;;;;;;;4999058;28;19928;-68
2023/01/25 15:05:27;;;;;;;;;;;;;;;;;;5003319;28;19917;-68
2023/01/25 15:07:52;;;;;;;;;;;;;;;;;;4998858;28;19960;-67
2023/01/25 15:10:18;;;;;;;;;;;;;;;;;;4995870;28;20156;-67
2023/01/25 15:12:44;;;;;;;;;;;;;;;;;;5000310;28;19971;-68
2023/01/25 15:15:09;;;;;;;;;;;;;;;;;;4984157;28;20192;-67
2023/01/25 15:17:37;;;;;;;;;;;;;;;;;;4997971;28;19920;-67
2023/01/25 15:20:03;;;;;;;;;;;;;;;;;;4994913;28;20384;-67
2023/01/25 15:22:28;;;;;;;;;;;;;;;;;;5002603;28;20484;-67
2023/01/25 15:24:53;;;;;;;;;;;;;;;;;;4995462;28;19971;-67
2023/01/25 15:27:19;;;;;;;;;;;;;;;;;;5000161;28;20070;-67
2023/01/25 15:29:45;;;;;;;;;;;;;;;;;;4995155;28;20368;-67
2023/01/25 15:32:11;;;;;;;;;;;;;;;;;;5004929;28;20028;-67
2023/01/25 15:34:38;;;;;;;;;;;;;;;;;;5004924;28;19928;-67
2023/01/25 15:37:04;;;;;;;;;;;;;;;;;;5003385;28;20537;-67
2023/01/25 15:39:31;;;;;;;;;;;;;;;;;;5003026;28;20001;-67
2023/01/25 15:41:57;;;;;;;;;;;;;;;;;;4989235;28;20032;-67
2023/01/25 15:44:23;;;;;;;;;;;;;;;;;;5002508;28;19921;-67
2023/01/25 15:46:48;;;;;;;;;;;;;;;;;;4979704;28;20395;-67
2023/01/25 15:49:14;;;;;;;;;;;;;;;;;;5004836;28;20024;-67
2023/01/25 15:51:39;;;;;;;;;;;;;;;;;;4996760;28;20928;-67
2023/01/25 15:54:07;;;;;;;;;;;;;;;;;;5004105;28;20046;-67
2023/01/25 15:56:32;;;;;;;;;;;;;;;;;;5005342;28;20167;-67
2023/01/25 15:59:00;;;;;;;;;;;;;;;;;;5004140;28;20035;-67
2023/01/25 16:01:25;;;;;;;;;;;;;;;;;;5004528;28;19924;-67
2023/01/25 16:03:51;;;;;;;;;;;;;;;;;;5005280;28;20359;-67
2023/01/25 16:06:16;;;;;;;;;;;;;;;;;;4997300;28;20282;-67
2023/01/25 16:08:42;;;;;;;;;;;;;;;;;;5003295;28;20006;-67
2023/01/25 16:11:07;;;;;;;;;;;;;;;;;;5004101;28;19925;-67
2023/01/25 16:13:32;;;;;;;;;;;;;;;;;;5000678;28;19925;-67
2023/01/25 16:16:00;;;;;;;;;;;;;;;;;;5011103;28;19963;-67
2023/01/25 16:18:25;;;;;;;;;;;;;;;;;;5001206;28;20273;-67
2023/01/25 16:20:53;;;;;;;;;;;;;;;;;;5016968;28;19923;-67
2023/01/25 16:23:18;;;;;;;;;;;;;;;;;;5003962;28;19925;-69
2023/01/25 16:25:44;;;;;;;;;;;;;;;;;;4998548;28;19924;-68
2023/01/25 16:28:09;;;;;;;;;;;;;;;;;;4999822;28;19921;-68
2023/01/25 16:30:34;;;;;;;;;;;;;;;;;;5004283;28;20398;-68
2023/01/25 16:33:00;;;;;;;;;;;;;;;;;;5002807;28;19931;-67
2023/01/25 16:35:28;;;;;;;;;;;;;;;;;;5004179;28;19925;-66
2023/01/25 16:37:53;;;;;;;;;;;;;;;;;;4981042;28;19948;-66
2023/01/25 16:40:21;;;;;;;;;;;;;;;;;;5005156;28;20120;-67
2023/01/25 16:42:46;;;;;;;;;;;;;;;;;;5004048;28;19929;-67
2023/01/25 16:45:14;;;;;;;;;;;;;;;;;;5003014;28;19982;-67
2023/01/25 16:47:39;;;;;;;;;;;;;;;;;;4980037;28;20331;-67
2023/01/25 16:50:05;;;;;;;;;;;;;;;;;;5001290;28;19921;-67
2023/01/25 16:52:30;;;;;;;;;;;;;;;;;;5000372;28;20016;-67
2023/01/25 16:54:58;;;;;;;;;;;;;;;;;;4980705;28;20092;-67